Songa Genesis — V7JH9 — position and weather

sailwx.info

Track history (hours):
 
Tides and Currents Weather Stations Pressure Air Temp Water Temp Dewpoint Dewpoint Depression Visibility Wind Speed Wind Dir Waves Ship Positions

Songa Genesis

Last reported at 2018-Jun-23 20:05 UTC. Time now 2018-Jul-15 19:04 UTC.
Position S 34°15' E 017°30'.
Warning: this ship's position is 21 days out of date.

Length 229 m; draft 6.9 m.

Type: Cargo ship. MMSI: 538007355.

Date/timePositionNaut miles runAvg speedWind from/ knotsBaromVisibWave heightAir tempDewpointWater temp
2018-Jun-23 20:05S 34°15' E 017°30'1 7.9
2018-Jun-23 20:00S 34°15' E 017°30'6 8.5
2018-Jun-23 19:19S 34°18' E 017°37'3 8.2
2018-Jun-23 18:58S 34°20' E 017°40'6 7.6
2018-Jun-23 18:13S 34°22' E 017°46'3 7.7
2018-Jun-23 17:53S 34°23' E 017°49'3 7.7
2018-Jun-23 17:30S 34°24' E 017°52'3 6.7
2018-Jun-23 17:00S 34°25' E 017°56'3 6.6
2018-Jun-23 16:30S 34°27' E 017°59'4 6.6
2018-Jun-23 15:57S 34°29' E 018°03'3 7.1
2018-Jun-23 15:30S 34°30' E 018°06'7 7.0
2018-Jun-23 14:31S 34°34' E 018°13'0 6.5
2018-Jun-23 14:30S 34°34' E 018°13'3 6.6
2018-Jun-23 14:00S 34°37' E 018°16'3 6.0
2018-Jun-23 13:30S 34°38' E 018°19'3 6.2
2018-Jun-23 13:00S 34°40' E 018°23'3 6.1
2018-Jun-23 12:30S 34°41' E 018°26'3 6.2
2018-Jun-23 11:58S 34°42' E 018°30'3 5.8
2018-Jun-23 11:27S 34°43' E 018°33'3 5.8
2018-Jun-23 11:00S 34°44' E 018°36'3 5.3
2018-Jun-23 10:30S 34°45' E 018°39'3 5.4
2018-Jun-23 09:54S 34°45' E 018°43'2 5.2
2018-Jun-23 09:30S 34°46' E 018°45'3 5.0
2018-Jun-23 08:59S 34°47' E 018°48'2 4.9
2018-Jun-23 08:30S 34°48' E 018°51'3 5.4
2018-Jun-23 07:58S 34°48' E 018°55'3 5.6
2018-Jun-23 07:24S 34°49' E 018°58'  
Track history (hours):
 
Tides and Currents Weather Stations Pressure Air Temp Water Temp Dewpoint Dewpoint Depression Visibility Wind Speed Wind Dir Waves Ship Positions

Songa Genesis

Last reported at 2018-Jun-23 20:05 UTC. Time now 2018-Jul-15 19:04 UTC.
Position S 34°15' E 017°30'.
Warning: this ship's position is 21 days out of date.

Length 229 m; draft 6.9 m.

Type: Cargo ship. MMSI: 538007355.

Date/timePositionNaut miles runAvg speedWind from/ knotsBaromVisibWave heightAir tempDewpointWater temp
2018-Jun-23 20:05S 34°15' E 017°30'1 7.9
2018-Jun-23 20:00S 34°15' E 017°30'6 8.5
2018-Jun-23 19:19S 34°18' E 017°37'3 8.2
2018-Jun-23 18:58S 34°20' E 017°40'6 7.6
2018-Jun-23 18:13S 34°22' E 017°46'3 7.7
2018-Jun-23 17:53S 34°23' E 017°49'3 7.7
2018-Jun-23 17:30S 34°24' E 017°52'3 6.7
2018-Jun-23 17:00S 34°25' E 017°56'3 6.6
2018-Jun-23 16:30S 34°27' E 017°59'4 6.6
2018-Jun-23 15:57S 34°29' E 018°03'3 7.1
2018-Jun-23 15:30S 34°30' E 018°06'7 7.0
2018-Jun-23 14:31S 34°34' E 018°13'0 6.5
2018-Jun-23 14:30S 34°34' E 018°13'3 6.6
2018-Jun-23 14:00S 34°37' E 018°16'3 6.0
2018-Jun-23 13:30S 34°38' E 018°19'3 6.2
2018-Jun-23 13:00S 34°40' E 018°23'3 6.1
2018-Jun-23 12:30S 34°41' E 018°26'3 6.2
2018-Jun-23 11:58S 34°42' E 018°30'3 5.8
2018-Jun-23 11:27S 34°43' E 018°33'3 5.8
2018-Jun-23 11:00S 34°44' E 018°36'3 5.3
2018-Jun-23 10:30S 34°45' E 018°39'3 5.4
2018-Jun-23 09:54S 34°45' E 018°43'2 5.2
2018-Jun-23 09:30S 34°46' E 018°45'3 5.0
2018-Jun-23 08:59S 34°47' E 018°48'2 4.9
2018-Jun-23 08:30S 34°48' E 018°51'3 5.4
2018-Jun-23 07:58S 34°48' E 018°55'3 5.6
2018-Jun-23 07:24S 34°49' E 018°58'  

Dump ship's entire track history